Latest Weather Observations for Minnipa RS

IDS60801

Issued at 11:35 am CST Wednesday 3 September 2014 (issued every 30 minutes, with the page automatically refreshed every 10 minutes)

About weather observations | Map of weather stations | Latest weather observations for SA | Other Formats
Station Details ID: 018195 Name: MINNIPA PIRSA Lat: -32.84 Lon: 135.15 Height: 165.0 m
Data from the previous 72 hours. | See also: Recent months at Minnipa RS
Date/Time
CST
Temp
°C
App
Temp
°C
Dew
Point
Rel
Hum
%
Delta-T
°C
Wind Press
QNH
hPa
Press
MSL
hPa
Rain
since 9 am
mm
Dir
 
Spd
km/h
Gust
km/h
Spd
kts
Gust
kts
03/11:30am 14.0 8.9 4.3 52 4.5 N 20 32 11 17 1022.3 - 0.0
03/11:00am 14.3 8.3 5.4 55 4.2 N 26 35 14 19 1022.4 - 0.0
03/10:30am 13.5 8.8 6.1 61 3.5 NNE 20 30 11 16 1022.9 - 0.0
03/10:00am 11.4 6.8 6.3 71 2.4 NNE 20 26 11 14 1023.5 - 0.0
03/09:30am 10.6 6.0 6.6 76 1.9 NNE 20 30 11 16 1023.3 - 0.0
03/09:00am 10.0 6.0 6.5 79 1.6 NNE 17 22 9 12 1024.3 1024.2 0.0
03/08:30am 9.4 5.3 6.3 81 1.4 NNE 17 24 9 13 1024.2 - 0.0
03/08:00am 8.4 4.2 5.7 83 1.2 NE 17 20 9 11 1023.9 - 0.0
03/07:30am 7.7 3.4 5.2 84 1.1 NE 17 20 9 11 1023.9 - 0.0
03/07:00am 7.5 3.1 5.0 84 1.1 NE 17 20 9 11 1024.0 - 0.0
03/06:30am 7.4 3.0 4.7 83 1.2 NE 17 19 9 10 1023.6 - 0.0
03/06:00am 7.0 2.5 4.3 83 1.2 NE 17 20 9 11 1023.7 1023.7 0.0
03/05:30am 6.7 2.2 4.4 85 1.0 NE 17 20 9 11 1023.7 - 0.0
03/05:00am 6.8 2.7 4.5 85 1.0 NE 15 19 8 10 1023.7 - 0.0
03/04:30am 6.6 2.1 4.4 86 1.0 NE 17 19 9 10 1023.4 - 0.0
03/04:00am 6.7 2.3 4.5 86 1.0 NE 17 19 9 10 1023.7 - 0.0
03/03:30am 6.9 2.5 4.6 85 1.0 NE 17 19 9 10 1024.2 - 0.0
03/03:00am 6.9 2.5 4.7 86 1.0 ENE 17 20 9 11 1024.3 1024.2 0.0
03/02:30am 7.0 2.6 4.8 86 1.0 ENE 17 20 9 11 1024.7 - 0.0
03/02:00am 7.3 2.5 4.9 85 1.1 ENE 19 20 10 11 1025.1 - 0.0
03/01:30am 7.6 2.9 5.1 84 1.1 ENE 19 22 10 12 1025.6 - 0.0
03/01:00am 7.2 2.8 5.0 86 1.0 ENE 17 20 9 11 1026.0 - 0.0
03/12:30am 7.7 3.0 5.2 84 1.1 E 19 22 10 12 1025.9 - 0.0
03/12:00am 7.9 3.1 5.4 84 1.1 E 20 24 11 13 1026.1 1026.1 0.0
 
Date/Time
CST
Temp
°C
App
Temp
°C
Dew
Point
Rel
Hum
%
Delta-T
°C
Wind Press
QNH
hPa
Press
MSL
hPa
Rain
since 9 am
mm
Dir
 
Spd
km/h
Gust
km/h
Spd
kts
Gust
kts
02/11:30pm 7.6 3.4 5.6 87 0.9 E 17 20 9 11 1026.6 - 0.0
02/11:00pm 6.7 3.1 4.9 88 0.8 E 13 15 7 8 1026.9 - 0.0
02/10:30pm 6.8 2.8 5.1 89 0.8 ESE 15 17 8 9 1027.0 - 0.0
02/10:00pm 6.0 2.3 4.3 89 0.7 ESE 13 15 7 8 1027.3 - 0.0
02/09:30pm 5.9 2.2 4.2 89 0.7 SE 13 15 7 8 1027.3 - 0.0
02/09:00pm 6.1 2.7 3.9 86 0.9 SE 11 13 6 7 1027.4 1027.4 0.0
02/08:30pm 6.6 3.6 4.1 84 1.1 WSW 9 13 5 7 1027.4 - 0.0
02/08:00pm 7.4 4.4 4.2 80 1.4 WSW 9 11 5 6 1027.2 - 0.0
02/07:30pm 8.1 5.6 4.9 80 1.4 SW 7 9 4 5 1027.3 - 0.0
02/07:00pm 9.3 6.1 5.1 75 1.9 SSW 11 15 6 8 1027.2 - 0.0
02/06:30pm 10.8 7.3 5.6 70 2.4 SSW 13 19 7 10 1026.9 - 0.0
02/06:00pm 12.0 9.7 5.9 66 2.9 ESE 7 11 4 6 1026.6 1026.6 0.0
02/05:30pm 13.9 11.6 5.8 58 3.9 ESE 7 9 4 5 1026.2 - 0.0
02/05:00pm 15.0 11.8 3.2 45 5.4 SE 9 13 5 7 1026.2 - 0.0
02/04:30pm 15.4 11.8 3.2 44 5.6 SE 11 17 6 9 1026.1 - 0.0
02/04:00pm 15.4 11.6 1.9 40 6.0 ESE 11 17 6 9 1026.1 - 0.0
02/03:30pm 16.0 13.0 2.1 39 6.2 WSW 7 17 4 9 1026.2 - 0.0
02/03:00pm 15.7 11.9 1.8 39 6.2 ESE 11 17 6 9 1026.4 1026.4 0.0
02/02:30pm 15.5 11.7 1.6 39 6.2 SSE 11 19 6 10 1026.5 - 0.0
02/02:00pm 15.2 12.2 2.1 41 5.8 SW 7 11 4 6 1026.7 - 0.0
02/01:30pm 14.6 10.3 3.4 47 5.1 SSW 15 20 8 11 1027.2 - 0.0
02/01:00pm 14.1 10.2 3.6 49 4.8 SSW 13 20 7 11 1027.6 - 0.0
02/12:30pm 14.8 11.2 5.1 52 4.6 SSW 13 19 7 10 1027.9 - 0.0
02/12:00pm 13.8 10.4 3.9 51 4.5 S 11 20 6 11 1028.2 1028.2 0.0
02/11:30am 13.8 9.1 3.3 49 4.8 S 17 39 9 21 1028.1 - 0.0
02/11:00am 13.5 8.4 4.1 53 4.3 SSE 20 28 11 15 1028.2 - 0.0
02/10:30am 12.9 7.8 4.3 56 3.9 SSE 20 28 11 15 1028.3 - 0.0
02/10:00am 12.3 7.7 5.5 63 3.2 SSE 19 26 10 14 1028.3 - 0.0
02/09:30am 11.2 6.7 6.1 71 2.4 SSE 19 26 10 14 1028.3 - 0.0
02/09:00am 10.2 7.2 6.2 76 1.9 SSE 11 19 6 10 1028.5 1028.5 1.0
02/08:30am 8.6 7.7 6.2 85 1.1 CALM 0 0 0 0 1028.5 - 1.0
02/08:00am 7.8 7.0 6.4 91 0.6 CALM 0 0 0 0 1028.2 - 1.0
02/07:30am 5.7 4.4 4.3 91 0.6 CALM 0 0 0 0 1027.5 - 1.0
02/07:00am 5.7 3.2 4.0 89 0.7 SSE 6 7 3 4 1027.5 - 1.0
02/06:30am 6.2 3.7 4.5 89 0.7 S 7 9 4 5 1027.0 - 1.0
02/06:00am 6.5 3.3 5.0 90 0.7 S 11 17 6 9 1026.9 1026.9 1.0
02/05:30am 4.0 2.5 3.1 94 0.4 CALM 0 0 0 0 1026.9 - 1.0
02/05:00am 3.7 2.2 2.8 94 0.4 CALM 0 0 0 0 1026.7 - 1.0
02/04:30am 3.6 0.9 2.7 94 0.4 WSW 6 7 3 4 1026.3 - 1.0
02/04:00am 1.6 -1.1 0.6 93 0.4 WSW 4 6 2 3 1026.0 - 1.0
02/03:30am 2.3 -1.2 1.3 93 0.4 WSW 9 11 5 6 1026.1 - 1.0
02/03:00am 3.4 0.4 2.2 92 0.5 WSW 7 9 4 5 1025.9 1025.9 1.0
02/02:30am 4.1 1.9 3.2 94 0.4 WSW 4 7 2 4 1025.7 - 1.0
02/02:00am 4.3 1.7 3.0 91 0.5 WSW 6 7 3 4 1025.8 - 1.0
02/01:30am 4.7 1.5 3.2 90 0.6 WSW 9 11 5 6 1025.7 - 1.0
02/01:00am 5.3 2.2 3.8 90 0.6 WSW 9 9 5 5 1025.6 - 1.0
02/12:30am 5.5 2.4 3.8 89 0.7 SSW 9 11 5 6 1025.4 - 1.0
02/12:00am 6.3 3.4 4.6 89 0.7 SSW 9 13 5 7 1025.4 1025.4 1.0
 
Date/Time
CST
Temp
°C
App
Temp
°C
Dew
Point
Rel
Hum
%
Delta-T
°C
Wind Press
QNH
hPa
Press
MSL
hPa
Rain
since 9 am
mm
Dir
 
Spd
km/h
Gust
km/h
Spd
kts
Gust
kts
01/11:30pm 5.3 2.7 4.0 91 0.6 SSW 7 9 4 5 1025.4 - 1.0
01/11:00pm 5.4 2.7 3.6 88 0.8 SSW 7 7 4 4 1025.3 - 1.0
01/10:30pm 6.8 4.0 5.0 88 0.8 SSW 9 11 5 6 1025.2 - 1.0
01/10:00pm 6.9 3.8 5.4 90 0.7 SW 11 24 6 13 1025.1 - 1.0
01/09:30pm 6.1 3.1 4.3 88 0.8 WSW 9 11 5 6 1024.7 - 1.0
01/09:00pm 6.7 3.8 4.9 88 0.8 WSW 9 13 5 7 1024.5 1024.4 1.0
01/08:30pm 6.6 3.3 4.6 87 0.9 SW 11 15 6 8 1024.0 - 1.0
01/08:00pm 7.4 4.2 4.9 84 1.1 SW 11 15 6 8 1023.5 - 1.0
01/07:30pm 8.0 4.0 4.9 81 1.4 SW 15 20 8 11 1023.0 - 1.0
01/07:00pm 9.2 3.9 5.0 75 1.9 SW 22 30 12 16 1022.5 - 1.0
01/06:30pm 10.1 5.2 4.9 70 2.4 SSW 20 28 11 15 1022.0 - 0.8
01/06:00pm 10.3 6.1 5.9 74 2.0 SW 17 24 9 13 1021.3 1021.3 0.8
01/05:35pm 10.5 4.3 6.3 75 2.0 SSW 28 48 15 26 1020.9 - 0.8
01/05:30pm 11.4 5.7 4.8 64 3.0 SSW 24 35 13 19 1020.7 - 0.8
01/05:14pm 12.5 6.0 4.7 59 3.6 SW 28 46 15 25 1020.3 - 0.8
01/05:00pm 12.3 5.5 5.2 62 3.3 SW 30 43 16 23 1020.2 - 0.8
01/04:30pm 12.9 6.4 6.3 64 3.2 SSW 30 43 16 23 1019.8 - 0.8
01/04:00pm 13.9 7.6 7.2 64 3.3 SW 30 43 16 23 1019.4 - 0.8
01/03:30pm 11.6 5.9 8.5 81 1.5 SW 28 43 15 23 1019.0 - 0.8
01/03:18pm 13.2 7.3 7.6 69 2.8 SW 28 46 15 25 1018.8 - 0.8
01/03:00pm 13.7 9.3 10.3 80 1.8 SW 24 33 13 18 1018.6 1018.5 0.8
01/02:42pm 11.6 6.1 9.0 84 1.3 WSW 28 46 15 25 1018.7 - 0.8
01/02:30pm 12.6 6.9 8.5 76 2.1 SW 28 41 15 22 1018.5 - 0.4
01/02:04pm 14.7 8.8 7.3 61 3.7 WSW 28 46 15 25 1017.9 - 0.4
01/02:00pm 15.0 9.1 7.3 60 3.8 WSW 28 39 15 21 1017.8 - 0.4
01/01:30pm 14.8 7.7 6.6 58 4.0 SW 33 43 18 23 1017.6 - 0.4
01/01:09pm 14.5 9.6 11.3 81 1.7 SW 28 46 15 25 1017.8 - 0.4
01/01:00pm 14.4 8.5 9.0 70 2.8 SW 30 46 16 25 1017.6 - 0.4
01/12:30pm 14.5 8.8 8.5 67 3.0 WSW 28 41 15 22 1017.7 - 0.4
01/12:00pm 15.6 12.0 9.9 69 3.0 WSW 19 30 10 16 1017.7 1017.6 0.4
01/11:30am 12.4 8.1 9.2 81 1.6 SW 22 39 12 21 1017.9 - 0.2
01/11:00am 13.9 10.4 10.1 78 2.0 SW 19 24 10 13 1017.9 - 0.0
01/10:30am 13.7 10.1 10.5 81 1.7 SW 20 28 11 15 1018.0 - 0.0
01/10:00am 12.5 9.8 10.2 86 1.2 WSW 15 22 8 12 1018.0 - 0.0
01/09:30am 11.9 9.2 10.5 91 0.7 SW 15 20 8 11 1017.8 - 0.0
01/09:00am 12.0 8.6 10.4 90 0.8 WSW 19 30 10 16 1017.5 1017.4 4.6
01/08:30am 12.4 11.2 11.5 94 0.5 WSW 9 15 5 8 1017.1 - 4.6
01/08:00am 12.0 10.7 11.2 95 0.4 WSW 9 13 5 7 1016.7 - 4.6
01/07:30am 11.6 10.2 10.8 95 0.4 W 9 13 5 7 1016.2 - 4.6
01/07:00am 11.5 10.0 10.7 95 0.4 WNW 9 13 5 7 1015.7 - 4.6
01/06:30am 11.3 9.8 10.5 95 0.4 WNW 9 13 5 7 1015.6 - 4.2
01/06:00am 11.2 10.2 10.4 95 0.4 SW 6 9 3 5 1015.4 1015.4 3.8
01/05:30am 11.3 10.2 10.5 95 0.4 SW 7 9 4 5 1014.8 - 3.8
01/05:00am 11.5 10.4 10.7 95 0.4 SW 7 9 4 5 1015.0 - 3.8
01/04:30am 11.5 10.6 10.7 95 0.4 SW 6 7 3 4 1014.6 - 3.6
01/04:00am 11.7 9.9 10.9 95 0.4 SW 11 15 6 8 1014.5 - 3.6
01/03:30am 11.7 9.9 10.9 95 0.4 SW 11 13 6 7 1014.7 - 3.4
01/03:00am 11.7 9.5 10.9 95 0.4 SW 13 17 7 9 1014.0 1013.9 3.4
01/02:30am 11.7 9.9 10.8 94 0.5 SW 11 13 6 7 1013.8 - 3.4
01/02:00am 11.7 9.9 10.8 94 0.5 SSW 11 17 6 9 1014.6 - 3.2
01/01:30am 11.7 10.6 10.8 94 0.5 SSE 7 7 4 4 1013.6 - 3.2
01/01:00am 11.9 10.1 11.0 94 0.5 S 11 15 6 8 1014.1 - 3.2
01/12:30am 12.2 10.5 11.3 94 0.5 SSW 11 17 6 9 1014.2 - 3.2
01/12:00am 12.5 10.5 11.6 94 0.5 SW 13 17 7 9 1014.6 1014.5 1.6
 
Date/Time
CST
Temp
°C
App
Temp
°C
Dew
Point
Rel
Hum
%
Delta-T
°C
Wind Press
QNH
hPa
Press
MSL
hPa
Rain
since 9 am
mm
Dir
 
Spd
km/h
Gust
km/h
Spd
kts
Gust
kts
31/11:30pm 12.6 11.7 11.5 93 0.6 SW 7 9 4 5 1013.9 - 1.4
31/11:00pm 12.6 11.4 11.5 93 0.6 SW 9 9 5 5 1014.2 - 1.2
31/10:30pm 12.7 12.1 11.6 93 0.6 SW 6 9 3 5 1013.7 - 0.8
31/10:00pm 13.0 12.3 11.9 93 0.6 SW 7 13 4 7 1014.4 - 0.8
31/09:30pm 13.1 12.3 11.8 92 0.7 SW 7 11 4 6 1014.4 - 0.0
31/09:00pm 13.1 11.9 11.7 91 0.8 SW 9 11 5 6 1014.1 1014.2 0.0
31/08:30pm 13.3 12.1 11.7 90 0.9 SW 9 11 5 6 1013.7 - 0.0
31/08:00pm 13.7 11.8 11.9 89 1.0 SW 13 17 7 9 1013.6 - 0.0
31/07:30pm 14.1 11.9 12.0 87 1.1 SW 15 20 8 11 1013.3 - 0.0
31/07:00pm 14.4 11.2 11.9 85 1.4 SSW 20 28 11 15 1013.1 - 0.0
31/06:30pm 14.8 11.6 11.8 82 1.6 SSW 20 30 11 16 1012.5 - 0.0
31/06:00pm 15.2 12.2 10.8 75 2.4 SW 17 24 9 13 1012.4 1012.4 0.0
31/05:30pm 16.3 11.6 9.3 63 3.7 SSW 24 37 13 20 1011.9 - 0.0
31/05:00pm 18.5 13.2 1.9 33 7.6 WSW 19 24 10 13 1012.0 - 0.0
31/04:30pm 18.9 14.3 1.4 31 7.9 SW 15 24 8 13 1011.6 - 0.0
31/04:00pm 19.2 14.1 0.8 29 8.3 WSW 17 24 9 13 1011.9 - 0.0
31/03:30pm 19.8 14.1 0.3 27 8.7 W 20 30 11 16 1011.6 - 0.0
31/03:00pm 20.6 15.1 0.4 26 9.1 W 19 24 10 13 1011.3 1011.3 0.0
31/02:30pm 21.5 16.2 -0.5 23 9.8 WNW 17 24 9 13 1011.0 - 0.0
31/02:00pm 22.5 16.8 -0.9 21 10.5 WNW 19 28 10 15 1011.3 - 0.0
31/01:30pm 22.7 16.4 -0.7 21 10.5 WNW 22 33 12 18 1011.7 - 0.0
31/01:00pm 22.8 16.6 -0.6 21 10.5 NNW 22 30 12 16 1012.4 - 0.0
31/12:30pm 21.7 16.0 -0.9 22 10.0 N 19 26 10 14 1012.2 - 0.0
31/12:00pm 20.3 14.4 -0.9 24 9.3 N 20 30 11 16 1012.6 1012.6 0.0

Other Formats:

Comma delimited format used in spreadsheet applications
http://www.bom.gov.au/fwo/IDS60801/IDS60801.95662.axf

JavaScript Object Notation format (JSON) in row-major order
http://www.bom.gov.au/fwo/IDS60801/IDS60801.95662.json